sensor_id;sensor_type;location;lat;lon;timestamp;P1;durP1;ratioP1;P2;durP2;ratioP2
52934;SDS011;38802;50.198;19.796;2023-05-20T00:00:53;31.40;;;21.10;;
52934;SDS011;38802;50.198;19.796;2023-05-20T00:03:21;31.10;;;21.80;;
52934;SDS011;38802;50.198;19.796;2023-05-20T00:05:49;30.00;;;22.10;;
52934;SDS011;38802;50.198;19.796;2023-05-20T00:08:18;28.40;;;20.10;;
52934;SDS011;38802;50.198;19.796;2023-05-20T00:10:46;21.20;;;16.90;;
52934;SDS011;38802;50.198;19.796;2023-05-20T00:13:14;26.50;;;18.10;;
52934;SDS011;38802;50.198;19.796;2023-05-20T00:15:42;25.10;;;17.50;;
52934;SDS011;38802;50.198;19.796;2023-05-20T00:18:10;25.70;;;18.20;;
52934;SDS011;38802;50.198;19.796;2023-05-20T00:20:38;23.70;;;16.90;;
52934;SDS011;38802;50.198;19.796;2023-05-20T00:23:06;26.50;;;17.80;;
52934;SDS011;38802;50.198;19.796;2023-05-20T00:25:34;26.80;;;17.20;;
52934;SDS011;38802;50.198;19.796;2023-05-20T00:28:04;21.70;;;16.50;;
52934;SDS011;38802;50.198;19.796;2023-05-20T00:30:34;21.90;;;16.80;;
52934;SDS011;38802;50.198;19.796;2023-05-20T00:33:02;22.50;;;14.80;;
52934;SDS011;38802;50.198;19.796;2023-05-20T00:35:30;20.20;;;14.80;;
52934;SDS011;38802;50.198;19.796;2023-05-20T00:37:58;21.60;;;14.70;;
52934;SDS011;38802;50.198;19.796;2023-05-20T00:40:26;24.50;;;16.20;;
52934;SDS011;38802;50.198;19.796;2023-05-20T00:42:54;21.20;;;15.50;;
52934;SDS011;38802;50.198;19.796;2023-05-20T00:45:22;20.90;;;14.80;;
52934;SDS011;38802;50.198;19.796;2023-05-20T00:47:51;18.50;;;15.20;;
52934;SDS011;38802;50.198;19.796;2023-05-20T00:50:19;18.80;;;13.80;;
52934;SDS011;38802;50.198;19.796;2023-05-20T00:52:48;18.30;;;14.30;;
52934;SDS011;38802;50.198;19.796;2023-05-20T00:55:18;18.60;;;14.40;;
52934;SDS011;38802;50.198;19.796;2023-05-20T00:57:48;22.30;;;15.00;;
52934;SDS011;38802;50.198;19.796;2023-05-20T01:00:16;20.30;;;14.20;;
52934;SDS011;38802;50.198;19.796;2023-05-20T01:02:44;19.70;;;15.10;;
52934;SDS011;38802;50.198;19.796;2023-05-20T01:05:12;19.20;;;14.70;;
52934;SDS011;38802;50.198;19.796;2023-05-20T01:07:41;17.50;;;13.90;;
52934;SDS011;38802;50.198;19.796;2023-05-20T01:10:09;21.90;;;14.00;;
52934;SDS011;38802;50.198;19.796;2023-05-20T01:12:41;19.40;;;14.00;;
52934;SDS011;38802;50.198;19.796;2023-05-20T01:15:13;16.50;;;13.30;;
52934;SDS011;38802;50.198;19.796;2023-05-20T01:17:43;16.10;;;12.60;;
52934;SDS011;38802;50.198;19.796;2023-05-20T01:20:13;18.50;;;13.90;;
52934;SDS011;38802;50.198;19.796;2023-05-20T01:22:54;21.40;;;13.80;;
52934;SDS011;38802;50.198;19.796;2023-05-20T01:25:23;13.90;;;11.40;;
52934;SDS011;38802;50.198;19.796;2023-05-20T01:27:52;20.80;;;14.80;;
52934;SDS011;38802;50.198;19.796;2023-05-20T01:30:24;22.50;;;14.30;;
52934;SDS011;38802;50.198;19.796;2023-05-20T01:32:57;17.70;;;14.30;;
52934;SDS011;38802;50.198;19.796;2023-05-20T01:35:30;17.70;;;13.90;;
52934;SDS011;38802;50.198;19.796;2023-05-20T01:37:58;17.60;;;13.40;;
52934;SDS011;38802;50.198;19.796;2023-05-20T01:40:27;19.60;;;14.10;;
52934;SDS011;38802;50.198;19.796;2023-05-20T01:42:56;19.50;;;15.00;;
52934;SDS011;38802;50.198;19.796;2023-05-20T01:45:25;20.40;;;13.60;;
52934;SDS011;38802;50.198;19.796;2023-05-20T01:47:53;21.20;;;16.40;;
52934;SDS011;38802;50.198;19.796;2023-05-20T01:50:22;21.40;;;16.70;;
52934;SDS011;38802;50.198;19.796;2023-05-20T01:52:50;19.80;;;16.20;;
52934;SDS011;38802;50.198;19.796;2023-05-20T01:55:18;21.80;;;16.90;;
52934;SDS011;38802;50.198;19.796;2023-05-20T01:57:46;28.10;;;16.70;;
52934;SDS011;38802;50.198;19.796;2023-05-20T02:00:14;22.80;;;17.20;;
52934;SDS011;38802;50.198;19.796;2023-05-20T02:02:44;20.00;;;15.50;;
52934;SDS011;38802;50.198;19.796;2023-05-20T02:05:13;23.60;;;16.30;;
52934;SDS011;38802;50.198;19.796;2023-05-20T02:07:42;21.90;;;15.40;;
52934;SDS011;38802;50.198;19.796;2023-05-20T02:10:10;21.40;;;15.10;;
52934;SDS011;38802;50.198;19.796;2023-05-20T02:12:38;22.60;;;16.00;;
52934;SDS011;38802;50.198;19.796;2023-05-20T02:15:06;21.30;;;15.70;;
52934;SDS011;38802;50.198;19.796;2023-05-20T02:17:35;23.50;;;16.40;;
52934;SDS011;38802;50.198;19.796;2023-05-20T02:20:04;18.80;;;15.30;;
52934;SDS011;38802;50.198;19.796;2023-05-20T02:22:34;22.60;;;16.60;;
52934;SDS011;38802;50.198;19.796;2023-05-20T02:25:03;22.10;;;15.80;;
52934;SDS011;38802;50.198;19.796;2023-05-20T02:27:31;22.80;;;16.10;;
52934;SDS011;38802;50.198;19.796;2023-05-20T02:29:59;20.00;;;16.00;;
52934;SDS011;38802;50.198;19.796;2023-05-20T02:32:27;20.10;;;16.00;;
52934;SDS011;38802;50.198;19.796;2023-05-20T02:34:56;23.50;;;16.00;;
52934;SDS011;38802;50.198;19.796;2023-05-20T02:37:24;15.90;;;14.30;;
52934;SDS011;38802;50.198;19.796;2023-05-20T02:39:54;20.20;;;14.10;;
52934;SDS011;38802;50.198;19.796;2023-05-20T02:42:22;16.70;;;14.10;;
52934;SDS011;38802;50.198;19.796;2023-05-20T02:44:50;18.60;;;14.80;;
52934;SDS011;38802;50.198;19.796;2023-05-20T02:47:24;16.20;;;14.30;;
52934;SDS011;38802;50.198;19.796;2023-05-20T02:49:52;18.70;;;15.00;;
52934;SDS011;38802;50.198;19.796;2023-05-20T02:52:20;17.50;;;15.30;;
52934;SDS011;38802;50.198;19.796;2023-05-20T02:54:49;18.40;;;15.10;;
52934;SDS011;38802;50.198;19.796;2023-05-20T02:57:17;19.80;;;15.50;;
52934;SDS011;38802;50.198;19.796;2023-05-20T02:59:45;17.10;;;14.10;;
52934;SDS011;38802;50.198;19.796;2023-05-20T03:02:13;18.20;;;14.60;;
52934;SDS011;38802;50.198;19.796;2023-05-20T03:04:41;15.60;;;13.20;;
52934;SDS011;38802;50.198;19.796;2023-05-20T03:07:09;19.90;;;15.40;;
52934;SDS011;38802;50.198;19.796;2023-05-20T03:09:37;16.30;;;14.20;;
52934;SDS011;38802;50.198;19.796;2023-05-20T03:12:06;16.30;;;13.90;;
52934;SDS011;38802;50.198;19.796;2023-05-20T03:14:34;18.10;;;13.90;;
52934;SDS011;38802;50.198;19.796;2023-05-20T03:17:02;17.50;;;14.20;;
52934;SDS011;38802;50.198;19.796;2023-05-20T03:19:31;15.30;;;13.60;;
52934;SDS011;38802;50.198;19.796;2023-05-20T03:21:59;15.00;;;12.50;;
52934;SDS011;38802;50.198;19.796;2023-05-20T03:24:27;15.90;;;13.20;;
52934;SDS011;38802;50.198;19.796;2023-05-20T03:26:56;16.50;;;13.60;;
52934;SDS011;38802;50.198;19.796;2023-05-20T03:29:24;14.50;;;12.80;;
52934;SDS011;38802;50.198;19.796;2023-05-20T03:31:52;16.10;;;13.80;;
52934;SDS011;38802;50.198;19.796;2023-05-20T03:34:20;15.30;;;13.10;;
52934;SDS011;38802;50.198;19.796;2023-05-20T03:36:50;16.10;;;14.40;;
52934;SDS011;38802;50.198;19.796;2023-05-20T03:39:18;14.60;;;13.00;;
52934;SDS011;38802;50.198;19.796;2023-05-20T03:41:47;17.10;;;13.20;;
52934;SDS011;38802;50.198;19.796;2023-05-20T03:44:15;15.30;;;13.70;;
52934;SDS011;38802;50.198;19.796;2023-05-20T03:46:43;17.00;;;13.60;;
52934;SDS011;38802;50.198;19.796;2023-05-20T03:49:12;15.00;;;11.20;;
52934;SDS011;38802;50.198;19.796;2023-05-20T03:51:40;16.50;;;13.20;;
52934;SDS011;38802;50.198;19.796;2023-05-20T03:54:11;16.90;;;14.60;;
52934;SDS011;38802;50.198;19.796;2023-05-20T03:56:39;15.90;;;13.20;;
52934;SDS011;38802;50.198;19.796;2023-05-20T03:59:07;17.70;;;13.60;;
52934;SDS011;38802;50.198;19.796;2023-05-20T04:01:36;15.70;;;14.00;;
52934;SDS011;38802;50.198;19.796;2023-05-20T04:04:04;16.90;;;14.80;;
52934;SDS011;38802;50.198;19.796;2023-05-20T04:06:32;17.60;;;14.90;;
52934;SDS011;38802;50.198;19.796;2023-05-20T04:09:00;18.90;;;14.60;;
52934;SDS011;38802;50.198;19.796;2023-05-20T04:11:28;16.30;;;13.70;;
52934;SDS011;38802;50.198;19.796;2023-05-20T04:13:57;17.70;;;14.10;;
52934;SDS011;38802;50.198;19.796;2023-05-20T04:16:27;15.90;;;13.80;;
52934;SDS011;38802;50.198;19.796;2023-05-20T04:18:56;20.10;;;15.10;;
52934;SDS011;38802;50.198;19.796;2023-05-20T04:21:26;19.80;;;15.20;;
52934;SDS011;38802;50.198;19.796;2023-05-20T04:23:54;18.20;;;14.80;;
52934;SDS011;38802;50.198;19.796;2023-05-20T04:26:22;18.10;;;14.80;;
52934;SDS011;38802;50.198;19.796;2023-05-20T04:28:50;15.10;;;13.50;;
52934;SDS011;38802;50.198;19.796;2023-05-20T04:31:20;22.40;;;17.30;;
52934;SDS011;38802;50.198;19.796;2023-05-20T04:33:53;21.30;;;16.80;;
52934;SDS011;38802;50.198;19.796;2023-05-20T04:36:22;17.70;;;13.60;;
52934;SDS011;38802;50.198;19.796;2023-05-20T04:38:55;23.60;;;17.60;;
52934;SDS011;38802;50.198;19.796;2023-05-20T04:41:24;22.60;;;18.00;;
52934;SDS011;38802;50.198;19.796;2023-05-20T04:43:52;27.00;;;17.70;;
52934;SDS011;38802;50.198;19.796;2023-05-20T04:46:20;22.90;;;17.00;;
52934;SDS011;38802;50.198;19.796;2023-05-20T04:48:48;23.10;;;18.00;;
52934;SDS011;38802;50.198;19.796;2023-05-20T04:51:17;21.50;;;17.00;;
52934;SDS011;38802;50.198;19.796;2023-05-20T04:53:45;20.80;;;16.70;;
52934;SDS011;38802;50.198;19.796;2023-05-20T04:56:13;24.30;;;17.20;;
52934;SDS011;38802;50.198;19.796;2023-05-20T04:58:42;25.80;;;17.50;;
52934;SDS011;38802;50.198;19.796;2023-05-20T05:01:10;26.70;;;18.20;;
52934;SDS011;38802;50.198;19.796;2023-05-20T05:03:38;26.60;;;18.40;;
52934;SDS011;38802;50.198;19.796;2023-05-20T05:06:06;24.80;;;19.20;;
52934;SDS011;38802;50.198;19.796;2023-05-20T05:08:34;25.00;;;19.10;;
52934;SDS011;38802;50.198;19.796;2023-05-20T05:11:04;23.30;;;18.50;;
52934;SDS011;38802;50.198;19.796;2023-05-20T05:13:33;21.70;;;17.40;;
52934;SDS011;38802;50.198;19.796;2023-05-20T05:16:02;28.40;;;19.40;;
52934;SDS011;38802;50.198;19.796;2023-05-20T05:18:31;28.90;;;19.40;;
52934;SDS011;38802;50.198;19.796;2023-05-20T05:21:03;29.30;;;19.30;;
52934;SDS011;38802;50.198;19.796;2023-05-20T05:23:34;26.60;;;18.90;;
52934;SDS011;38802;50.198;19.796;2023-05-20T05:26:02;29.90;;;19.00;;
52934;SDS011;38802;50.198;19.796;2023-05-20T05:28:30;31.40;;;21.90;;
52934;SDS011;38802;50.198;19.796;2023-05-20T05:30:58;29.40;;;20.40;;
52934;SDS011;38802;50.198;19.796;2023-05-20T05:33:28;28.30;;;20.90;;
52934;SDS011;38802;50.198;19.796;2023-05-20T05:35:57;27.40;;;20.70;;
52934;SDS011;38802;50.198;19.796;2023-05-20T05:38:26;36.70;;;24.50;;
52934;SDS011;38802;50.198;19.796;2023-05-20T05:40:54;29.70;;;22.30;;
52934;SDS011;38802;50.198;19.796;2023-05-20T05:43:23;28.00;;;20.60;;
52934;SDS011;38802;50.198;19.796;2023-05-20T05:45:51;28.20;;;20.10;;
52934;SDS011;38802;50.198;19.796;2023-05-20T05:48:20;30.00;;;20.80;;
52934;SDS011;38802;50.198;19.796;2023-05-20T05:50:49;26.10;;;20.50;;
52934;SDS011;38802;50.198;19.796;2023-05-20T05:53:17;27.50;;;20.80;;
52934;SDS011;38802;50.198;19.796;2023-05-20T05:55:47;27.40;;;19.50;;
52934;SDS011;38802;50.198;19.796;2023-05-20T05:58:16;30.80;;;22.20;;
52934;SDS011;38802;50.198;19.796;2023-05-20T06:00:45;29.20;;;21.20;;
52934;SDS011;38802;50.198;19.796;2023-05-20T06:03:14;29.60;;;21.70;;
52934;SDS011;38802;50.198;19.796;2023-05-20T06:05:45;29.20;;;22.40;;
52934;SDS011;38802;50.198;19.796;2023-05-20T06:08:14;28.00;;;21.60;;
52934;SDS011;38802;50.198;19.796;2023-05-20T06:10:47;37.40;;;22.70;;
52934;SDS011;38802;50.198;19.796;2023-05-20T06:13:16;32.60;;;22.20;;
52934;SDS011;38802;50.198;19.796;2023-05-20T06:15:45;29.10;;;22.80;;
52934;SDS011;38802;50.198;19.796;2023-05-20T06:18:13;35.30;;;25.30;;
52934;SDS011;38802;50.198;19.796;2023-05-20T06:20:41;39.90;;;29.20;;
52934;SDS011;38802;50.198;19.796;2023-05-20T06:23:09;36.10;;;26.30;;
52934;SDS011;38802;50.198;19.796;2023-05-20T06:25:46;35.00;;;24.50;;
52934;SDS011;38802;50.198;19.796;2023-05-20T06:28:15;29.70;;;23.40;;
52934;SDS011;38802;50.198;19.796;2023-05-20T06:30:43;40.40;;;27.60;;
52934;SDS011;38802;50.198;19.796;2023-05-20T06:33:11;36.80;;;25.10;;
52934;SDS011;38802;50.198;19.796;2023-05-20T06:35:40;37.60;;;26.20;;
52934;SDS011;38802;50.198;19.796;2023-05-20T06:38:08;34.00;;;24.90;;
52934;SDS011;38802;50.198;19.796;2023-05-20T06:40:37;30.80;;;21.30;;
52934;SDS011;38802;50.198;19.796;2023-05-20T06:43:05;37.30;;;26.40;;
52934;SDS011;38802;50.198;19.796;2023-05-20T06:45:48;34.20;;;23.10;;
52934;SDS011;38802;50.198;19.796;2023-05-20T06:48:42;36.00;;;24.30;;
52934;SDS011;38802;50.198;19.796;2023-05-20T06:51:11;44.50;;;27.30;;
52934;SDS011;38802;50.198;19.796;2023-05-20T06:53:39;34.40;;;25.30;;
52934;SDS011;38802;50.198;19.796;2023-05-20T06:56:07;36.40;;;22.70;;
52934;SDS011;38802;50.198;19.796;2023-05-20T06:58:36;33.70;;;23.00;;
52934;SDS011;38802;50.198;19.796;2023-05-20T07:01:04;29.40;;;20.30;;
52934;SDS011;38802;50.198;19.796;2023-05-20T07:03:33;31.80;;;22.00;;
52934;SDS011;38802;50.198;19.796;2023-05-20T07:06:01;35.00;;;23.70;;
52934;SDS011;38802;50.198;19.796;2023-05-20T07:08:29;32.40;;;22.50;;
52934;SDS011;38802;50.198;19.796;2023-05-20T07:10:58;38.10;;;24.10;;
52934;SDS011;38802;50.198;19.796;2023-05-20T07:13:26;34.70;;;23.00;;
52934;SDS011;38802;50.198;19.796;2023-05-20T07:15:54;31.90;;;23.10;;
52934;SDS011;38802;50.198;19.796;2023-05-20T07:18:26;33.80;;;22.20;;
52934;SDS011;38802;50.198;19.796;2023-05-20T07:20:56;33.40;;;22.40;;
52934;SDS011;38802;50.198;19.796;2023-05-20T07:23:41;37.50;;;22.20;;
52934;SDS011;38802;50.198;19.796;2023-05-20T07:26:10;29.70;;;21.50;;
52934;SDS011;38802;50.198;19.796;2023-05-20T07:28:38;34.10;;;24.10;;
52934;SDS011;38802;50.198;19.796;2023-05-20T07:31:06;33.20;;;21.80;;
52934;SDS011;38802;50.198;19.796;2023-05-20T07:33:41;27.50;;;22.10;;
52934;SDS011;38802;50.198;19.796;2023-05-20T07:36:09;33.30;;;23.20;;
52934;SDS011;38802;50.198;19.796;2023-05-20T07:38:40;27.60;;;20.90;;
52934;SDS011;38802;50.198;19.796;2023-05-20T07:41:23;25.90;;;18.20;;
52934;SDS011;38802;50.198;19.796;2023-05-20T07:43:51;27.90;;;20.30;;
52934;SDS011;38802;50.198;19.796;2023-05-20T07:46:19;29.30;;;20.20;;
52934;SDS011;38802;50.198;19.796;2023-05-20T07:48:48;26.20;;;18.60;;
52934;SDS011;38802;50.198;19.796;2023-05-20T07:51:17;26.00;;;19.80;;
52934;SDS011;38802;50.198;19.796;2023-05-20T07:53:45;31.10;;;20.30;;
52934;SDS011;38802;50.198;19.796;2023-05-20T07:56:14;25.50;;;18.50;;
52934;SDS011;38802;50.198;19.796;2023-05-20T07:58:43;31.50;;;20.80;;
52934;SDS011;38802;50.198;19.796;2023-05-20T08:01:19;30.30;;;20.00;;
52934;SDS011;38802;50.198;19.796;2023-05-20T08:03:49;24.60;;;18.10;;
52934;SDS011;38802;50.198;19.796;2023-05-20T08:06:20;30.30;;;20.70;;
52934;SDS011;38802;50.198;19.796;2023-05-20T08:08:48;29.80;;;20.30;;
52934;SDS011;38802;50.198;19.796;2023-05-20T08:11:20;26.90;;;19.60;;
52934;SDS011;38802;50.198;19.796;2023-05-20T08:13:48;27.60;;;19.00;;
52934;SDS011;38802;50.198;19.796;2023-05-20T08:16:17;33.20;;;21.50;;
52934;SDS011;38802;50.198;19.796;2023-05-20T08:18:45;24.60;;;18.40;;
52934;SDS011;38802;50.198;19.796;2023-05-20T08:21:13;30.10;;;21.40;;
52934;SDS011;38802;50.198;19.796;2023-05-20T08:23:42;27.80;;;19.90;;
52934;SDS011;38802;50.198;19.796;2023-05-20T08:26:10;27.50;;;19.10;;
52934;SDS011;38802;50.198;19.796;2023-05-20T08:28:42;26.80;;;18.70;;
52934;SDS011;38802;50.198;19.796;2023-05-20T08:31:10;29.30;;;21.10;;
52934;SDS011;38802;50.198;19.796;2023-05-20T08:33:38;26.90;;;18.80;;
52934;SDS011;38802;50.198;19.796;2023-05-20T08:36:10;27.60;;;20.40;;
52934;SDS011;38802;50.198;19.796;2023-05-20T08:38:39;27.00;;;19.00;;
52934;SDS011;38802;50.198;19.796;2023-05-20T08:41:08;29.70;;;19.90;;
52934;SDS011;38802;50.198;19.796;2023-05-20T08:43:37;29.20;;;22.00;;
52934;SDS011;38802;50.198;19.796;2023-05-20T08:46:07;32.90;;;21.80;;
52934;SDS011;38802;50.198;19.796;2023-05-20T08:48:36;31.20;;;20.80;;
52934;SDS011;38802;50.198;19.796;2023-05-20T08:51:04;33.30;;;21.50;;
52934;SDS011;38802;50.198;19.796;2023-05-20T08:53:36;32.90;;;21.10;;
52934;SDS011;38802;50.198;19.796;2023-05-20T08:56:04;33.10;;;21.40;;
52934;SDS011;38802;50.198;19.796;2023-05-20T08:58:33;33.40;;;22.40;;
52934;SDS011;38802;50.198;19.796;2023-05-20T09:01:01;26.20;;;20.00;;
52934;SDS011;38802;50.198;19.796;2023-05-20T09:03:29;37.00;;;23.60;;
52934;SDS011;38802;50.198;19.796;2023-05-20T09:06:16;33.10;;;22.50;;
52934;SDS011;38802;50.198;19.796;2023-05-20T09:08:48;37.10;;;24.10;;
52934;SDS011;38802;50.198;19.796;2023-05-20T09:11:18;47.10;;;23.30;;
52934;SDS011;38802;50.198;19.796;2023-05-20T09:13:49;39.80;;;24.40;;
52934;SDS011;38802;50.198;19.796;2023-05-20T09:16:17;39.80;;;25.40;;
52934;SDS011;38802;50.198;19.796;2023-05-20T09:18:45;40.30;;;24.40;;
52934;SDS011;38802;50.198;19.796;2023-05-20T09:21:13;37.90;;;24.70;;
52934;SDS011;38802;50.198;19.796;2023-05-20T09:23:45;39.60;;;25.50;;
52934;SDS011;38802;50.198;19.796;2023-05-20T09:26:16;46.00;;;26.10;;
52934;SDS011;38802;50.198;19.796;2023-05-20T09:28:45;39.80;;;24.50;;
52934;SDS011;38802;50.198;19.796;2023-05-20T09:31:13;42.00;;;26.40;;
52934;SDS011;38802;50.198;19.796;2023-05-20T09:33:41;36.20;;;23.40;;
52934;SDS011;38802;50.198;19.796;2023-05-20T09:36:10;39.80;;;24.80;;
52934;SDS011;38802;50.198;19.796;2023-05-20T09:38:43;34.60;;;23.50;;
52934;SDS011;38802;50.198;19.796;2023-05-20T09:41:12;41.10;;;25.30;;
52934;SDS011;38802;50.198;19.796;2023-05-20T09:43:42;37.80;;;23.10;;
52934;SDS011;38802;50.198;19.796;2023-05-20T09:46:13;37.60;;;24.40;;
52934;SDS011;38802;50.198;19.796;2023-05-20T09:48:43;47.10;;;26.20;;
52934;SDS011;38802;50.198;19.796;2023-05-20T09:51:11;37.40;;;24.20;;
52934;SDS011;38802;50.198;19.796;2023-05-20T09:53:40;35.20;;;24.70;;
52934;SDS011;38802;50.198;19.796;2023-05-20T09:56:09;35.40;;;25.00;;
52934;SDS011;38802;50.198;19.796;2023-05-20T09:58:38;37.80;;;23.70;;
52934;SDS011;38802;50.198;19.796;2023-05-20T10:01:07;30.50;;;22.40;;
52934;SDS011;38802;50.198;19.796;2023-05-20T10:03:35;36.50;;;25.80;;
52934;SDS011;38802;50.198;19.796;2023-05-20T10:06:19;37.40;;;23.50;;
52934;SDS011;38802;50.198;19.796;2023-05-20T10:14:39;38.10;;;24.30;;
52934;SDS011;38802;50.198;19.796;2023-05-20T10:19:56;33.50;;;23.40;;
52934;SDS011;38802;50.198;19.796;2023-05-20T10:22:26;33.50;;;22.00;;
52934;SDS011;38802;50.198;19.796;2023-05-20T10:24:59;46.60;;;25.30;;
52934;SDS011;38802;50.198;19.796;2023-05-20T10:27:42;41.90;;;24.70;;
52934;SDS011;38802;50.198;19.796;2023-05-20T10:30:17;33.80;;;23.60;;
52934;SDS011;38802;50.198;19.796;2023-05-20T10:35:24;36.90;;;24.80;;
52934;SDS011;38802;50.198;19.796;2023-05-20T10:37:54;43.30;;;24.30;;
52934;SDS011;38802;50.198;19.796;2023-05-20T10:40:35;36.40;;;22.10;;
52934;SDS011;38802;50.198;19.796;2023-05-20T10:43:10;34.80;;;22.20;;
52934;SDS011;38802;50.198;19.796;2023-05-20T10:45:52;31.40;;;22.40;;
52934;SDS011;38802;50.198;19.796;2023-05-20T10:48:31;32.70;;;24.10;;
52934;SDS011;38802;50.198;19.796;2023-05-20T10:53:39;35.70;;;24.30;;
52934;SDS011;38802;50.198;19.796;2023-05-20T10:58:46;40.40;;;24.30;;
52934;SDS011;38802;50.198;19.796;2023-05-20T11:01:14;34.70;;;22.60;;
52934;SDS011;38802;50.198;19.796;2023-05-20T11:03:44;38.20;;;23.70;;
52934;SDS011;38802;50.198;19.796;2023-05-20T11:06:16;31.60;;;21.40;;
52934;SDS011;38802;50.198;19.796;2023-05-20T11:08:45;32.90;;;22.40;;
52934;SDS011;38802;50.198;19.796;2023-05-20T11:11:14;27.90;;;21.20;;
52934;SDS011;38802;50.198;19.796;2023-05-20T11:13:42;32.70;;;21.10;;
52934;SDS011;38802;50.198;19.796;2023-05-20T11:16:10;30.20;;;20.40;;
52934;SDS011;38802;50.198;19.796;2023-05-20T11:18:38;25.40;;;19.60;;
52934;SDS011;38802;50.198;19.796;2023-05-20T11:21:07;28.10;;;19.00;;
52934;SDS011;38802;50.198;19.796;2023-05-20T11:23:37;26.00;;;19.70;;
52934;SDS011;38802;50.198;19.796;2023-05-20T11:26:07;26.00;;;20.20;;
52934;SDS011;38802;50.198;19.796;2023-05-20T11:28:36;32.20;;;22.70;;
52934;SDS011;38802;50.198;19.796;2023-05-20T11:31:05;28.60;;;20.00;;
52934;SDS011;38802;50.198;19.796;2023-05-20T11:33:33;25.50;;;18.90;;
52934;SDS011;38802;50.198;19.796;2023-05-20T11:36:01;34.10;;;20.20;;
52934;SDS011;38802;50.198;19.796;2023-05-20T11:38:31;32.10;;;21.00;;
52934;SDS011;38802;50.198;19.796;2023-05-20T11:40:59;34.10;;;20.40;;
52934;SDS011;38802;50.198;19.796;2023-05-20T11:43:27;35.60;;;21.20;;
52934;SDS011;38802;50.198;19.796;2023-05-20T11:45:56;26.80;;;20.60;;
52934;SDS011;38802;50.198;19.796;2023-05-20T11:48:27;27.20;;;20.00;;
52934;SDS011;38802;50.198;19.796;2023-05-20T11:50:55;35.60;;;21.60;;
52934;SDS011;38802;50.198;19.796;2023-05-20T11:53:25;28.20;;;21.40;;
52934;SDS011;38802;50.198;19.796;2023-05-20T11:58:28;28.40;;;21.10;;
52934;SDS011;38802;50.198;19.796;2023-05-20T12:00:57;26.80;;;19.50;;
52934;SDS011;38802;50.198;19.796;2023-05-20T12:03:40;30.10;;;21.00;;
52934;SDS011;38802;50.198;19.796;2023-05-20T12:06:10;28.60;;;19.30;;
52934;SDS011;38802;50.198;19.796;2023-05-20T12:08:40;23.60;;;20.50;;
52934;SDS011;38802;50.198;19.796;2023-05-20T12:11:08;26.80;;;22.00;;
52934;SDS011;38802;50.198;19.796;2023-05-20T12:13:36;27.20;;;19.70;;
52934;SDS011;38802;50.198;19.796;2023-05-20T12:16:04;25.20;;;19.30;;
52934;SDS011;38802;50.198;19.796;2023-05-20T12:18:33;29.90;;;19.30;;
52934;SDS011;38802;50.198;19.796;2023-05-20T12:21:01;31.40;;;21.30;;
52934;SDS011;38802;50.198;19.796;2023-05-20T12:23:29;27.40;;;18.30;;
52934;SDS011;38802;50.198;19.796;2023-05-20T12:26:00;30.50;;;20.40;;
52934;SDS011;38802;50.198;19.796;2023-05-20T12:28:28;34.50;;;20.10;;
52934;SDS011;38802;50.198;19.796;2023-05-20T12:30:56;30.50;;;21.00;;
52934;SDS011;38802;50.198;19.796;2023-05-20T12:33:24;25.10;;;20.30;;
52934;SDS011;38802;50.198;19.796;2023-05-20T12:35:54;31.10;;;18.80;;
52934;SDS011;38802;50.198;19.796;2023-05-20T12:38:22;26.10;;;19.20;;
52934;SDS011;38802;50.198;19.796;2023-05-20T12:40:50;26.90;;;18.90;;
52934;SDS011;38802;50.198;19.796;2023-05-20T12:43:18;23.80;;;19.60;;
52934;SDS011;38802;50.198;19.796;2023-05-20T12:45:46;33.60;;;18.80;;
52934;SDS011;38802;50.198;19.796;2023-05-20T12:48:14;27.60;;;20.70;;
52934;SDS011;38802;50.198;19.796;2023-05-20T12:50:42;31.00;;;19.10;;
52934;SDS011;38802;50.198;19.796;2023-05-20T12:53:10;30.10;;;19.80;;
52934;SDS011;38802;50.198;19.796;2023-05-20T12:55:38;26.90;;;19.50;;
52934;SDS011;38802;50.198;19.796;2023-05-20T12:58:07;28.80;;;19.60;;
52934;SDS011;38802;50.198;19.796;2023-05-20T13:00:39;30.90;;;19.60;;
52934;SDS011;38802;50.198;19.796;2023-05-20T13:03:07;29.10;;;19.20;;
52934;SDS011;38802;50.198;19.796;2023-05-20T13:05:35;25.30;;;19.40;;
52934;SDS011;38802;50.198;19.796;2023-05-20T13:08:03;29.30;;;20.80;;
52934;SDS011;38802;50.198;19.796;2023-05-20T13:10:31;23.60;;;19.40;;
52934;SDS011;38802;50.198;19.796;2023-05-20T13:13:00;28.00;;;19.70;;
52934;SDS011;38802;50.198;19.796;2023-05-20T13:15:28;29.00;;;19.70;;
52934;SDS011;38802;50.198;19.796;2023-05-20T13:17:56;29.70;;;18.80;;
52934;SDS011;38802;50.198;19.796;2023-05-20T13:20:25;26.00;;;18.70;;
52934;SDS011;38802;50.198;19.796;2023-05-20T13:22:54;29.30;;;19.80;;
52934;SDS011;38802;50.198;19.796;2023-05-20T13:25:22;24.50;;;18.40;;
52934;SDS011;38802;50.198;19.796;2023-05-20T13:27:50;31.40;;;19.60;;
52934;SDS011;38802;50.198;19.796;2023-05-20T13:30:18;33.20;;;21.00;;
52934;SDS011;38802;50.198;19.796;2023-05-20T13:32:46;28.40;;;21.30;;
52934;SDS011;38802;50.198;19.796;2023-05-20T13:35:14;24.60;;;19.40;;
52934;SDS011;38802;50.198;19.796;2023-05-20T13:37:45;31.60;;;19.70;;
52934;SDS011;38802;50.198;19.796;2023-05-20T13:40:13;25.70;;;18.00;;
52934;SDS011;38802;50.198;19.796;2023-05-20T13:42:42;28.50;;;18.70;;
52934;SDS011;38802;50.198;19.796;2023-05-20T13:45:10;27.90;;;18.10;;
52934;SDS011;38802;50.198;19.796;2023-05-20T13:47:38;25.40;;;18.70;;
52934;SDS011;38802;50.198;19.796;2023-05-20T13:50:07;24.00;;;17.80;;
52934;SDS011;38802;50.198;19.796;2023-05-20T13:52:38;25.00;;;18.20;;
52934;SDS011;38802;50.198;19.796;2023-05-20T13:55:06;23.40;;;17.70;;
52934;SDS011;38802;50.198;19.796;2023-05-20T13:57:35;25.30;;;18.20;;
52934;SDS011;38802;50.198;19.796;2023-05-20T14:00:03;23.00;;;18.50;;
52934;SDS011;38802;50.198;19.796;2023-05-20T14:02:35;21.10;;;18.60;;
52934;SDS011;38802;50.198;19.796;2023-05-20T14:05:04;34.60;;;19.60;;
52934;SDS011;38802;50.198;19.796;2023-05-20T14:07:33;27.10;;;18.80;;
52934;SDS011;38802;50.198;19.796;2023-05-20T14:10:02;21.60;;;17.70;;
52934;SDS011;38802;50.198;19.796;2023-05-20T14:12:33;19.30;;;16.70;;
52934;SDS011;38802;50.198;19.796;2023-05-20T14:15:05;23.90;;;16.70;;
52934;SDS011;38802;50.198;19.796;2023-05-20T14:17:33;24.30;;;17.30;;
52934;SDS011;38802;50.198;19.796;2023-05-20T14:20:02;28.90;;;19.40;;
52934;SDS011;38802;50.198;19.796;2023-05-20T14:22:30;23.10;;;16.90;;
52934;SDS011;38802;50.198;19.796;2023-05-20T14:24:58;22.20;;;17.00;;
52934;SDS011;38802;50.198;19.796;2023-05-20T14:27:28;32.50;;;17.60;;
52934;SDS011;38802;50.198;19.796;2023-05-20T14:29:56;19.20;;;15.80;;
52934;SDS011;38802;50.198;19.796;2023-05-20T14:32:24;21.90;;;17.50;;
52934;SDS011;38802;50.198;19.796;2023-05-20T14:34:52;24.50;;;15.80;;
52934;SDS011;38802;50.198;19.796;2023-05-20T14:37:20;22.10;;;17.40;;
52934;SDS011;38802;50.198;19.796;2023-05-20T14:39:49;26.30;;;17.30;;